sensor_id;sensor_type;location;lat;lon;timestamp;P1;durP1;ratioP1;P2;durP2;ratioP2
7031;SDS011;3557;48.880;8.328;2022-09-28T00:02:28;3.80;;;1.15;;
7031;SDS011;3557;48.880;8.328;2022-09-28T00:04:54;0.95;;;0.80;;
7031;SDS011;3557;48.880;8.328;2022-09-28T00:07:22;1.70;;;0.80;;
7031;SDS011;3557;48.880;8.328;2022-09-28T00:09:49;2.50;;;1.00;;
7031;SDS011;3557;48.880;8.328;2022-09-28T00:12:16;1.17;;;0.85;;
7031;SDS011;3557;48.880;8.328;2022-09-28T00:14:43;1.67;;;0.93;;
7031;SDS011;3557;48.880;8.328;2022-09-28T00:17:10;2.60;;;0.90;;
7031;SDS011;3557;48.880;8.328;2022-09-28T00:19:39;3.25;;;1.05;;
7031;SDS011;3557;48.880;8.328;2022-09-28T00:22:06;3.40;;;1.23;;
7031;SDS011;3557;48.880;8.328;2022-09-28T00:24:33;2.95;;;1.00;;
7031;SDS011;3557;48.880;8.328;2022-09-28T00:27:00;1.17;;;0.77;;
7031;SDS011;3557;48.880;8.328;2022-09-28T00:29:28;3.38;;;1.13;;
7031;SDS011;3557;48.880;8.328;2022-09-28T00:31:58;5.80;;;1.40;;
7031;SDS011;3557;48.880;8.328;2022-09-28T00:34:28;1.48;;;0.70;;
7031;SDS011;3557;48.880;8.328;2022-09-28T00:36:59;3.58;;;1.10;;
7031;SDS011;3557;48.880;8.328;2022-09-28T00:39:27;2.58;;;0.80;;
7031;SDS011;3557;48.880;8.328;2022-09-28T00:41:55;1.80;;;0.75;;
7031;SDS011;3557;48.880;8.328;2022-09-28T00:44:32;2.13;;;1.00;;
7031;SDS011;3557;48.880;8.328;2022-09-28T00:49:57;2.20;;;0.95;;
7031;SDS011;3557;48.880;8.328;2022-09-28T00:52:30;2.45;;;0.98;;
7031;SDS011;3557;48.880;8.328;2022-09-28T00:55:02;2.50;;;0.90;;
7031;SDS011;3557;48.880;8.328;2022-09-28T00:57:34;3.45;;;0.80;;
7031;SDS011;3557;48.880;8.328;2022-09-28T01:00:03;2.20;;;1.08;;
7031;SDS011;3557;48.880;8.328;2022-09-28T01:02:32;2.88;;;1.02;;
7031;SDS011;3557;48.880;8.328;2022-09-28T01:04:59;2.83;;;1.30;;
7031;SDS011;3557;48.880;8.328;2022-09-28T01:07:30;2.88;;;1.20;;
7031;SDS011;3557;48.880;8.328;2022-09-28T01:09:58;2.45;;;1.30;;
7031;SDS011;3557;48.880;8.328;2022-09-28T01:12:26;5.50;;;1.30;;
7031;SDS011;3557;48.880;8.328;2022-09-28T01:14:53;1.50;;;0.98;;
7031;SDS011;3557;48.880;8.328;2022-09-28T01:17:24;1.23;;;1.00;;
7031;SDS011;3557;48.880;8.328;2022-09-28T01:20:05;4.88;;;1.25;;
7031;SDS011;3557;48.880;8.328;2022-09-28T01:23:18;3.85;;;1.17;;
7031;SDS011;3557;48.880;8.328;2022-09-28T01:29:12;3.78;;;1.42;;
7031;SDS011;3557;48.880;8.328;2022-09-28T01:31:44;3.00;;;1.27;;
7031;SDS011;3557;48.880;8.328;2022-09-28T01:34:19;6.70;;;1.75;;
7031;SDS011;3557;48.880;8.328;2022-09-28T01:36:51;2.75;;;1.50;;
7031;SDS011;3557;48.880;8.328;2022-09-28T01:39:22;4.72;;;1.50;;
7031;SDS011;3557;48.880;8.328;2022-09-28T01:41:58;3.58;;;1.55;;
7031;SDS011;3557;48.880;8.328;2022-09-28T01:44:31;4.43;;;1.40;;
7031;SDS011;3557;48.880;8.328;2022-09-28T01:47:06;2.08;;;1.17;;
7031;SDS011;3557;48.880;8.328;2022-09-28T01:49:36;2.47;;;1.35;;
7031;SDS011;3557;48.880;8.328;2022-09-28T01:52:11;5.53;;;1.55;;
7031;SDS011;3557;48.880;8.328;2022-09-28T01:54:43;4.50;;;1.50;;
7031;SDS011;3557;48.880;8.328;2022-09-28T01:57:20;2.58;;;1.45;;
7031;SDS011;3557;48.880;8.328;2022-09-28T01:59:54;2.88;;;1.60;;
7031;SDS011;3557;48.880;8.328;2022-09-28T02:02:27;4.53;;;1.67;;
7031;SDS011;3557;48.880;8.328;2022-09-28T02:05:01;5.05;;;1.60;;
7031;SDS011;3557;48.880;8.328;2022-09-28T02:07:33;3.40;;;1.48;;
7031;SDS011;3557;48.880;8.328;2022-09-28T02:10:05;5.55;;;1.60;;
7031;SDS011;3557;48.880;8.328;2022-09-28T02:12:42;4.13;;;1.35;;
7031;SDS011;3557;48.880;8.328;2022-09-28T02:15:14;7.80;;;1.45;;
7031;SDS011;3557;48.880;8.328;2022-09-28T02:17:45;3.50;;;1.65;;
7031;SDS011;3557;48.880;8.328;2022-09-28T02:20:14;4.43;;;1.40;;
7031;SDS011;3557;48.880;8.328;2022-09-28T02:22:43;3.35;;;1.30;;
7031;SDS011;3557;48.880;8.328;2022-09-28T02:25:17;3.25;;;1.35;;
7031;SDS011;3557;48.880;8.328;2022-09-28T02:27:57;1.08;;;0.98;;
7031;SDS011;3557;48.880;8.328;2022-09-28T02:30:28;4.10;;;1.60;;
7031;SDS011;3557;48.880;8.328;2022-09-28T02:32:56;2.17;;;1.13;;
7031;SDS011;3557;48.880;8.328;2022-09-28T02:35:28;2.33;;;1.05;;
7031;SDS011;3557;48.880;8.328;2022-09-28T02:37:55;3.13;;;1.10;;
7031;SDS011;3557;48.880;8.328;2022-09-28T02:40:24;3.40;;;0.95;;
7031;SDS011;3557;48.880;8.328;2022-09-28T02:42:58;0.70;;;0.70;;
7031;SDS011;3557;48.880;8.328;2022-09-28T02:45:38;2.60;;;1.10;;
7031;SDS011;3557;48.880;8.328;2022-09-28T02:48:26;1.00;;;0.85;;
7031;SDS011;3557;48.880;8.328;2022-09-28T02:51:10;1.75;;;0.93;;
7031;SDS011;3557;48.880;8.328;2022-09-28T02:53:49;2.75;;;1.02;;
7031;SDS011;3557;48.880;8.328;2022-09-28T02:56:38;1.77;;;0.70;;
7031;SDS011;3557;48.880;8.328;2022-09-28T02:59:26;2.85;;;0.85;;
7031;SDS011;3557;48.880;8.328;2022-09-28T03:02:08;1.60;;;0.93;;
7031;SDS011;3557;48.880;8.328;2022-09-28T03:04:41;1.65;;;1.25;;
7031;SDS011;3557;48.880;8.328;2022-09-28T03:07:23;4.22;;;1.20;;
7031;SDS011;3557;48.880;8.328;2022-09-28T03:10:00;2.28;;;1.00;;
7031;SDS011;3557;48.880;8.328;2022-09-28T03:12:34;2.30;;;1.33;;
7031;SDS011;3557;48.880;8.328;2022-09-28T03:15:09;4.65;;;1.40;;
7031;SDS011;3557;48.880;8.328;2022-09-28T03:17:45;1.88;;;1.10;;
7031;SDS011;3557;48.880;8.328;2022-09-28T03:20:12;2.80;;;1.55;;
7031;SDS011;3557;48.880;8.328;2022-09-28T03:22:40;2.30;;;1.35;;
7031;SDS011;3557;48.880;8.328;2022-09-28T03:25:07;2.15;;;1.20;;
7031;SDS011;3557;48.880;8.328;2022-09-28T03:27:38;1.42;;;1.13;;
7031;SDS011;3557;48.880;8.328;2022-09-28T03:30:06;1.88;;;1.13;;
7031;SDS011;3557;48.880;8.328;2022-09-28T03:32:38;4.13;;;1.30;;
7031;SDS011;3557;48.880;8.328;2022-09-28T03:35:06;2.38;;;1.13;;
7031;SDS011;3557;48.880;8.328;2022-09-28T03:37:34;2.78;;;1.10;;
7031;SDS011;3557;48.880;8.328;2022-09-28T03:40:03;2.67;;;1.05;;
7031;SDS011;3557;48.880;8.328;2022-09-28T03:42:34;3.17;;;1.20;;
7031;SDS011;3557;48.880;8.328;2022-09-28T03:45:03;2.97;;;1.13;;
7031;SDS011;3557;48.880;8.328;2022-09-28T03:47:32;2.47;;;1.40;;
7031;SDS011;3557;48.880;8.328;2022-09-28T03:49:59;6.13;;;1.42;;
7031;SDS011;3557;48.880;8.328;2022-09-28T03:52:27;2.53;;;1.05;;
7031;SDS011;3557;48.880;8.328;2022-09-28T03:54:54;2.92;;;1.27;;
7031;SDS011;3557;48.880;8.328;2022-09-28T03:57:21;2.53;;;1.20;;
7031;SDS011;3557;48.880;8.328;2022-09-28T03:59:48;2.78;;;1.40;;
7031;SDS011;3557;48.880;8.328;2022-09-28T04:02:15;2.13;;;1.23;;
7031;SDS011;3557;48.880;8.328;2022-09-28T04:04:44;2.25;;;1.20;;
7031;SDS011;3557;48.880;8.328;2022-09-28T04:07:10;2.35;;;1.30;;
7031;SDS011;3557;48.880;8.328;2022-09-28T04:09:37;1.98;;;1.27;;
7031;SDS011;3557;48.880;8.328;2022-09-28T04:12:04;7.35;;;1.30;;
7031;SDS011;3557;48.880;8.328;2022-09-28T04:14:32;3.13;;;1.20;;
7031;SDS011;3557;48.880;8.328;2022-09-28T04:16:59;7.00;;;1.33;;
7031;SDS011;3557;48.880;8.328;2022-09-28T04:19:27;2.15;;;1.27;;
7031;SDS011;3557;48.880;8.328;2022-09-28T04:22:15;3.97;;;1.40;;
7031;SDS011;3557;48.880;8.328;2022-09-28T04:24:42;3.70;;;1.30;;
7031;SDS011;3557;48.880;8.328;2022-09-28T04:27:10;2.40;;;1.52;;
7031;SDS011;3557;48.880;8.328;2022-09-28T04:29:55;5.18;;;1.40;;
7031;SDS011;3557;48.880;8.328;2022-09-28T04:32:22;3.33;;;1.35;;
7031;SDS011;3557;48.880;8.328;2022-09-28T04:34:49;3.70;;;1.50;;
7031;SDS011;3557;48.880;8.328;2022-09-28T04:37:18;4.53;;;1.50;;
7031;SDS011;3557;48.880;8.328;2022-09-28T04:39:45;3.95;;;1.20;;
7031;SDS011;3557;48.880;8.328;2022-09-28T04:42:12;3.28;;;1.40;;
7031;SDS011;3557;48.880;8.328;2022-09-28T04:44:39;4.35;;;1.40;;
7031;SDS011;3557;48.880;8.328;2022-09-28T04:47:07;4.28;;;1.25;;
7031;SDS011;3557;48.880;8.328;2022-09-28T04:50:06;2.47;;;1.35;;
7031;SDS011;3557;48.880;8.328;2022-09-28T04:52:55;2.70;;;1.40;;
7031;SDS011;3557;48.880;8.328;2022-09-28T04:55:22;5.75;;;1.40;;
7031;SDS011;3557;48.880;8.328;2022-09-28T04:57:49;4.28;;;1.45;;
7031;SDS011;3557;48.880;8.328;2022-09-28T05:00:16;5.72;;;1.70;;
7031;SDS011;3557;48.880;8.328;2022-09-28T05:02:58;4.85;;;1.55;;
7031;SDS011;3557;48.880;8.328;2022-09-28T05:05:45;7.90;;;1.90;;
7031;SDS011;3557;48.880;8.328;2022-09-28T05:08:36;3.40;;;1.90;;
7031;SDS011;3557;48.880;8.328;2022-09-28T05:11:04;1.77;;;1.50;;
7031;SDS011;3557;48.880;8.328;2022-09-28T05:13:37;5.53;;;1.63;;
7031;SDS011;3557;48.880;8.328;2022-09-28T05:16:06;3.92;;;2.17;;
7031;SDS011;3557;48.880;8.328;2022-09-28T05:18:58;5.53;;;2.15;;
7031;SDS011;3557;48.880;8.328;2022-09-28T05:21:25;5.35;;;2.40;;
7031;SDS011;3557;48.880;8.328;2022-09-28T05:23:55;4.25;;;1.80;;
7031;SDS011;3557;48.880;8.328;2022-09-28T05:26:23;2.05;;;1.63;;
7031;SDS011;3557;48.880;8.328;2022-09-28T05:28:50;3.03;;;1.98;;
7031;SDS011;3557;48.880;8.328;2022-09-28T05:31:36;2.03;;;1.60;;
7031;SDS011;3557;48.880;8.328;2022-09-28T05:34:21;3.33;;;1.67;;
7031;SDS011;3557;48.880;8.328;2022-09-28T05:36:49;3.58;;;1.70;;
7031;SDS011;3557;48.880;8.328;2022-09-28T05:39:18;3.60;;;1.77;;
7031;SDS011;3557;48.880;8.328;2022-09-28T05:41:45;5.82;;;1.77;;
7031;SDS011;3557;48.880;8.328;2022-09-28T05:44:12;4.30;;;1.60;;
7031;SDS011;3557;48.880;8.328;2022-09-28T05:46:39;3.15;;;1.70;;
7031;SDS011;3557;48.880;8.328;2022-09-28T05:49:08;4.80;;;1.50;;
7031;SDS011;3557;48.880;8.328;2022-09-28T05:51:36;3.35;;;1.73;;
7031;SDS011;3557;48.880;8.328;2022-09-28T05:54:03;4.10;;;1.80;;
7031;SDS011;3557;48.880;8.328;2022-09-28T05:56:32;5.85;;;1.60;;
7031;SDS011;3557;48.880;8.328;2022-09-28T05:59:02;4.13;;;1.90;;
7031;SDS011;3557;48.880;8.328;2022-09-28T06:01:30;5.18;;;2.20;;
7031;SDS011;3557;48.880;8.328;2022-09-28T06:04:00;5.22;;;2.35;;
7031;SDS011;3557;48.880;8.328;2022-09-28T06:06:27;5.38;;;2.20;;
7031;SDS011;3557;48.880;8.328;2022-09-28T06:08:55;4.85;;;2.30;;
7031;SDS011;3557;48.880;8.328;2022-09-28T06:11:39;4.13;;;2.10;;
7031;SDS011;3557;48.880;8.328;2022-09-28T06:14:19;7.88;;;1.95;;
7031;SDS011;3557;48.880;8.328;2022-09-28T06:16:45;6.07;;;1.90;;
7031;SDS011;3557;48.880;8.328;2022-09-28T06:19:15;4.05;;;1.88;;
7031;SDS011;3557;48.880;8.328;2022-09-28T06:22:03;2.33;;;1.63;;
7031;SDS011;3557;48.880;8.328;2022-09-28T06:24:36;5.05;;;1.90;;
7031;SDS011;3557;48.880;8.328;2022-09-28T06:27:04;3.30;;;1.73;;
7031;SDS011;3557;48.880;8.328;2022-09-28T06:29:31;5.25;;;1.80;;
7031;SDS011;3557;48.880;8.328;2022-09-28T06:31:58;4.20;;;1.80;;
7031;SDS011;3557;48.880;8.328;2022-09-28T06:34:26;3.42;;;2.00;;
7031;SDS011;3557;48.880;8.328;2022-09-28T06:36:54;2.78;;;2.15;;
7031;SDS011;3557;48.880;8.328;2022-09-28T06:39:22;5.95;;;2.65;;
7031;SDS011;3557;48.880;8.328;2022-09-28T06:41:49;5.28;;;2.40;;
7031;SDS011;3557;48.880;8.328;2022-09-28T06:44:21;8.05;;;2.40;;
7031;SDS011;3557;48.880;8.328;2022-09-28T06:47:21;5.72;;;2.70;;
7031;SDS011;3557;48.880;8.328;2022-09-28T06:50:06;5.90;;;2.55;;
7031;SDS011;3557;48.880;8.328;2022-09-28T06:52:49;6.60;;;2.60;;
7031;SDS011;3557;48.880;8.328;2022-09-28T06:55:44;7.28;;;2.35;;
7031;SDS011;3557;48.880;8.328;2022-09-28T06:58:14;4.72;;;1.90;;
7031;SDS011;3557;48.880;8.328;2022-09-28T07:00:46;4.88;;;1.75;;
7031;SDS011;3557;48.880;8.328;2022-09-28T07:03:16;5.93;;;2.22;;
7031;SDS011;3557;48.880;8.328;2022-09-28T07:06:08;6.18;;;1.67;;
7031;SDS011;3557;48.880;8.328;2022-09-28T07:08:51;6.30;;;2.00;;
7031;SDS011;3557;48.880;8.328;2022-09-28T07:11:37;5.20;;;1.83;;
7031;SDS011;3557;48.880;8.328;2022-09-28T07:14:12;4.63;;;1.98;;
7031;SDS011;3557;48.880;8.328;2022-09-28T07:16:41;6.13;;;2.20;;
7031;SDS011;3557;48.880;8.328;2022-09-28T07:19:08;6.40;;;2.13;;
7031;SDS011;3557;48.880;8.328;2022-09-28T07:21:36;5.82;;;2.33;;
7031;SDS011;3557;48.880;8.328;2022-09-28T07:24:03;3.20;;;2.00;;
7031;SDS011;3557;48.880;8.328;2022-09-28T07:26:56;6.40;;;2.10;;
7031;SDS011;3557;48.880;8.328;2022-09-28T07:29:33;5.32;;;2.10;;
7031;SDS011;3557;48.880;8.328;2022-09-28T07:32:21;2.38;;;1.80;;
7031;SDS011;3557;48.880;8.328;2022-09-28T07:34:57;7.03;;;2.17;;
7031;SDS011;3557;48.880;8.328;2022-09-28T07:37:35;6.93;;;2.03;;
7031;SDS011;3557;48.880;8.328;2022-09-28T07:40:03;3.65;;;1.90;;
7031;SDS011;3557;48.880;8.328;2022-09-28T07:42:51;8.80;;;2.17;;
7031;SDS011;3557;48.880;8.328;2022-09-28T07:45:18;5.30;;;2.30;;
7031;SDS011;3557;48.880;8.328;2022-09-28T07:47:49;5.00;;;2.20;;
7031;SDS011;3557;48.880;8.328;2022-09-28T07:50:32;6.18;;;2.03;;
7031;SDS011;3557;48.880;8.328;2022-09-28T07:53:17;4.43;;;2.10;;
7031;SDS011;3557;48.880;8.328;2022-09-28T07:56:01;5.40;;;2.28;;
7031;SDS011;3557;48.880;8.328;2022-09-28T07:58:36;8.13;;;2.05;;
7031;SDS011;3557;48.880;8.328;2022-09-28T08:01:34;3.17;;;1.88;;
7031;SDS011;3557;48.880;8.328;2022-09-28T08:04:02;4.57;;;2.03;;
7031;SDS011;3557;48.880;8.328;2022-09-28T08:06:31;4.55;;;2.13;;
7031;SDS011;3557;48.880;8.328;2022-09-28T08:08:59;9.18;;;2.45;;
7031;SDS011;3557;48.880;8.328;2022-09-28T08:11:45;6.68;;;2.17;;
7031;SDS011;3557;48.880;8.328;2022-09-28T08:14:33;6.25;;;2.53;;
7031;SDS011;3557;48.880;8.328;2022-09-28T08:17:14;9.30;;;2.38;;
7031;SDS011;3557;48.880;8.328;2022-09-28T08:19:49;4.18;;;2.17;;
7031;SDS011;3557;48.880;8.328;2022-09-28T08:22:34;6.55;;;2.00;;
7031;SDS011;3557;48.880;8.328;2022-09-28T08:25:01;4.88;;;2.15;;
7031;SDS011;3557;48.880;8.328;2022-09-28T08:27:29;6.30;;;2.50;;
7031;SDS011;3557;48.880;8.328;2022-09-28T08:29:56;6.32;;;1.95;;
7031;SDS011;3557;48.880;8.328;2022-09-28T08:32:45;5.03;;;2.28;;
7031;SDS011;3557;48.880;8.328;2022-09-28T08:35:33;5.85;;;2.25;;
7031;SDS011;3557;48.880;8.328;2022-09-28T08:38:23;6.85;;;2.33;;
7031;SDS011;3557;48.880;8.328;2022-09-28T08:41:12;11.27;;;2.25;;
7031;SDS011;3557;48.880;8.328;2022-09-28T08:44:07;5.10;;;2.50;;
7031;SDS011;3557;48.880;8.328;2022-09-28T08:47:09;5.50;;;2.10;;
7031;SDS011;3557;48.880;8.328;2022-09-28T08:50:19;3.88;;;2.10;;
7031;SDS011;3557;48.880;8.328;2022-09-28T08:53:01;6.78;;;2.15;;
7031;SDS011;3557;48.880;8.328;2022-09-28T08:55:57;10.40;;;2.17;;
7031;SDS011;3557;48.880;8.328;2022-09-28T08:58:31;5.45;;;2.30;;
7031;SDS011;3557;48.880;8.328;2022-09-28T09:01:04;5.85;;;2.40;;
7031;SDS011;3557;48.880;8.328;2022-09-28T09:03:36;4.95;;;2.03;;
7031;SDS011;3557;48.880;8.328;2022-09-28T09:06:39;4.40;;;1.80;;
7031;SDS011;3557;48.880;8.328;2022-09-28T09:09:37;6.05;;;1.92;;
7031;SDS011;3557;48.880;8.328;2022-09-28T09:12:17;5.45;;;2.13;;
7031;SDS011;3557;48.880;8.328;2022-09-28T09:15:00;6.47;;;2.05;;
7031;SDS011;3557;48.880;8.328;2022-09-28T09:17:49;8.05;;;2.15;;
7031;SDS011;3557;48.880;8.328;2022-09-28T09:20:58;6.28;;;1.85;;
7031;SDS011;3557;48.880;8.328;2022-09-28T09:23:41;2.90;;;1.88;;
7031;SDS011;3557;48.880;8.328;2022-09-28T09:26:25;3.35;;;2.00;;
7031;SDS011;3557;48.880;8.328;2022-09-28T09:29:09;4.25;;;2.10;;
7031;SDS011;3557;48.880;8.328;2022-09-28T09:32:03;4.95;;;1.77;;
7031;SDS011;3557;48.880;8.328;2022-09-28T09:34:45;4.80;;;2.13;;
7031;SDS011;3557;48.880;8.328;2022-09-28T09:38:04;3.08;;;1.80;;
7031;SDS011;3557;48.880;8.328;2022-09-28T09:41:14;3.33;;;1.60;;
7031;SDS011;3557;48.880;8.328;2022-09-28T09:44:46;7.13;;;2.20;;
7031;SDS011;3557;48.880;8.328;2022-09-28T09:47:48;6.15;;;2.00;;
7031;SDS011;3557;48.880;8.328;2022-09-28T09:50:23;4.22;;;1.83;;
7031;SDS011;3557;48.880;8.328;2022-09-28T09:52:56;7.18;;;2.15;;
7031;SDS011;3557;48.880;8.328;2022-09-28T09:55:28;2.38;;;1.50;;
7031;SDS011;3557;48.880;8.328;2022-09-28T09:58:18;6.07;;;2.20;;
7031;SDS011;3557;48.880;8.328;2022-09-28T10:00:58;4.85;;;1.95;;
7031;SDS011;3557;48.880;8.328;2022-09-28T10:03:55;5.28;;;1.70;;
7031;SDS011;3557;48.880;8.328;2022-09-28T10:06:25;2.53;;;1.80;;
7031;SDS011;3557;48.880;8.328;2022-09-28T10:08:59;5.53;;;2.10;;
7031;SDS011;3557;48.880;8.328;2022-09-28T10:11:32;2.90;;;1.75;;
7031;SDS011;3557;48.880;8.328;2022-09-28T10:14:07;5.10;;;2.00;;
7031;SDS011;3557;48.880;8.328;2022-09-28T10:16:41;4.78;;;1.60;;
7031;SDS011;3557;48.880;8.328;2022-09-28T10:19:16;5.00;;;2.08;;
7031;SDS011;3557;48.880;8.328;2022-09-28T10:22:05;7.57;;;1.70;;
7031;SDS011;3557;48.880;8.328;2022-09-28T10:24:37;4.85;;;1.80;;
7031;SDS011;3557;48.880;8.328;2022-09-28T10:27:12;2.20;;;1.45;;
7031;SDS011;3557;48.880;8.328;2022-09-28T10:29:44;3.45;;;1.60;;
7031;SDS011;3557;48.880;8.328;2022-09-28T10:32:19;6.82;;;2.22;;
7031;SDS011;3557;48.880;8.328;2022-09-28T10:34:51;3.35;;;1.58;;
7031;SDS011;3557;48.880;8.328;2022-09-28T10:37:22;3.00;;;1.50;;
7031;SDS011;3557;48.880;8.328;2022-09-28T10:40:24;3.92;;;1.58;;
7031;SDS011;3557;48.880;8.328;2022-09-28T10:43:01;4.00;;;1.60;;
7031;SDS011;3557;48.880;8.328;2022-09-28T10:45:34;4.07;;;1.48;;
7031;SDS011;3557;48.880;8.328;2022-09-28T10:48:03;5.15;;;1.50;;
7031;SDS011;3557;48.880;8.328;2022-09-28T10:50:41;5.07;;;1.50;;
7031;SDS011;3557;48.880;8.328;2022-09-28T10:53:13;3.30;;;1.50;;
7031;SDS011;3557;48.880;8.328;2022-09-28T10:56:17;3.30;;;1.45;;
7031;SDS011;3557;48.880;8.328;2022-09-28T10:58:49;3.83;;;1.50;;
7031;SDS011;3557;48.880;8.328;2022-09-28T11:01:25;3.78;;;1.63;;
7031;SDS011;3557;48.880;8.328;2022-09-28T11:03:58;5.43;;;1.60;;
7031;SDS011;3557;48.880;8.328;2022-09-28T11:06:29;2.60;;;1.30;;
7031;SDS011;3557;48.880;8.328;2022-09-28T11:08:59;2.17;;;1.30;;
7031;SDS011;3557;48.880;8.328;2022-09-28T11:11:30;5.25;;;1.42;;
7031;SDS011;3557;48.880;8.328;2022-09-28T11:14:23;2.90;;;1.40;;
7031;SDS011;3557;48.880;8.328;2022-09-28T11:17:16;5.30;;;1.55;;
7031;SDS011;3557;48.880;8.328;2022-09-28T11:19:51;3.22;;;1.52;;
7031;SDS011;3557;48.880;8.328;2022-09-28T11:22:20;5.95;;;1.40;;
7031;SDS011;3557;48.880;8.328;2022-09-28T11:27:53;3.60;;;1.55;;
7031;SDS011;3557;48.880;8.328;2022-09-28T11:30:25;2.55;;;1.38;;
7031;SDS011;3557;48.880;8.328;2022-09-28T11:33:23;2.60;;;1.35;;
7031;SDS011;3557;48.880;8.328;2022-09-28T11:36:20;3.22;;;1.40;;
7031;SDS011;3557;48.880;8.328;2022-09-28T11:39:03;4.68;;;1.27;;
7031;SDS011;3557;48.880;8.328;2022-09-28T11:41:52;2.42;;;1.52;;
7031;SDS011;3557;48.880;8.328;2022-09-28T11:44:40;2.92;;;1.50;;
7031;SDS011;3557;48.880;8.328;2022-09-28T11:47:18;1.73;;;1.30;;
7031;SDS011;3557;48.880;8.328;2022-09-28T11:50:12;4.72;;;1.30;;
7031;SDS011;3557;48.880;8.328;2022-09-28T11:52:47;3.10;;;1.45;;
7031;SDS011;3557;48.880;8.328;2022-09-28T11:55:25;4.55;;;1.40;;
7031;SDS011;3557;48.880;8.328;2022-09-28T11:57:59;2.45;;;1.13;;
7031;SDS011;3557;48.880;8.328;2022-09-28T12:00:32;1.83;;;1.23;;
7031;SDS011;3557;48.880;8.328;2022-09-28T12:03:11;2.72;;;1.20;;
7031;SDS011;3557;48.880;8.328;2022-09-28T12:05:46;1.92;;;1.10;;
7031;SDS011;3557;48.880;8.328;2022-09-28T12:08:18;3.03;;;1.30;;
7031;SDS011;3557;48.880;8.328;2022-09-28T12:11:04;3.83;;;1.38;;
7031;SDS011;3557;48.880;8.328;2022-09-28T12:14:17;1.88;;;1.27;;
7031;SDS011;3557;48.880;8.328;2022-09-28T12:16:49;3.15;;;1.30;;
7031;SDS011;3557;48.880;8.328;2022-09-28T12:19:24;2.00;;;1.23;;
7031;SDS011;3557;48.880;8.328;2022-09-28T12:21:59;1.90;;;1.10;;
7031;SDS011;3557;48.880;8.328;2022-09-28T12:24:35;2.83;;;1.38;;
7031;SDS011;3557;48.880;8.328;2022-09-28T12:27:06;2.97;;;1.23;;
7031;SDS011;3557;48.880;8.328;2022-09-28T12:29:42;3.60;;;1.20;;
7031;SDS011;3557;48.880;8.328;2022-09-28T12:32:15;1.67;;;1.02;;
7031;SDS011;3557;48.880;8.328;2022-09-28T12:34:51;7.60;;;1.30;;
7031;SDS011;3557;48.880;8.328;2022-09-28T12:37:26;2.85;;;1.27;;
7031;SDS011;3557;48.880;8.328;2022-09-28T12:40:14;2.13;;;1.20;;
7031;SDS011;3557;48.880;8.328;2022-09-28T12:43:06;2.95;;;1.27;;
7031;SDS011;3557;48.880;8.328;2022-09-28T12:48:56;3.70;;;1.38;;
7031;SDS011;3557;48.880;8.328;2022-09-28T12:51:42;2.78;;;1.30;;
7031;SDS011;3557;48.880;8.328;2022-09-28T12:54:22;3.58;;;1.25;;
7031;SDS011;3557;48.880;8.328;2022-09-28T12:57:02;2.65;;;1.33;;
7031;SDS011;3557;48.880;8.328;2022-09-28T12:59:53;4.55;;;1.40;;
7031;SDS011;3557;48.880;8.328;2022-09-28T13:02:33;4.88;;;1.80;;
7031;SDS011;3557;48.880;8.328;2022-09-28T13:05:37;1.27;;;1.20;;
7031;SDS011;3557;48.880;8.328;2022-09-28T13:08:28;3.38;;;1.40;;
7031;SDS011;3557;48.880;8.328;2022-09-28T13:11:11;3.70;;;1.30;;
7031;SDS011;3557;48.880;8.328;2022-09-28T13:13:50;3.83;;;1.33;;
7031;SDS011;3557;48.880;8.328;2022-09-28T13:16:34;3.08;;;1.17;;
7031;SDS011;3557;48.880;8.328;2022-09-28T13:19:10;1.48;;;1.30;;
7031;SDS011;3557;48.880;8.328;2022-09-28T13:21:45;3.65;;;1.33;;
7031;SDS011;3557;48.880;8.328;2022-09-28T13:24:23;2.03;;;1.20;;
7031;SDS011;3557;48.880;8.328;2022-09-28T13:26:55;3.30;;;1.48;;
7031;SDS011;3557;48.880;8.328;2022-09-28T13:29:29;1.58;;;1.20;;
7031;SDS011;3557;48.880;8.328;2022-09-28T13:31:59;4.07;;;1.00;;
7031;SDS011;3557;48.880;8.328;2022-09-28T13:34:28;3.78;;;1.20;;
7031;SDS011;3557;48.880;8.328;2022-09-28T13:37:08;3.00;;;1.45;;
7031;SDS011;3557;48.880;8.328;2022-09-28T13:39:46;2.60;;;1.17;;
7031;SDS011;3557;48.880;8.328;2022-09-28T13:42:22;3.65;;;1.30;;
7031;SDS011;3557;48.880;8.328;2022-09-28T13:45:41;5.03;;;1.42;;
7031;SDS011;3557;48.880;8.328;2022-09-28T13:48:19;3.13;;;1.20;;
7031;SDS011;3557;48.880;8.328;2022-09-28T13:50:54;5.35;;;1.10;;
7031;SDS011;3557;48.880;8.328;2022-09-28T13:53:35;3.17;;;1.33;;
7031;SDS011;3557;48.880;8.328;2022-09-28T13:56:26;2.72;;;1.30;;
7031;SDS011;3557;48.880;8.328;2022-09-28T13:59:07;3.63;;;1.40;;
7031;SDS011;3557;48.880;8.328;2022-09-28T14:01:44;3.13;;;1.33;;
7031;SDS011;3557;48.880;8.328;2022-09-28T14:04:20;3.55;;;1.30;;
7031;SDS011;3557;48.880;8.328;2022-09-28T14:06:50;2.35;;;1.23;;
7031;SDS011;3557;48.880;8.328;2022-09-28T14:09:25;4.97;;;2.03;;
7031;SDS011;3557;48.880;8.328;2022-09-28T14:18:13;2.33;;;1.42;;
7031;SDS011;3557;48.880;8.328;2022-09-28T14:20:56;2.65;;;1.60;;
7031;SDS011;3557;48.880;8.328;2022-09-28T14:23:45;2.47;;;1.33;;
7031;SDS011;3557;48.880;8.328;2022-09-28T14:29:24;2.70;;;1.40;;
7031;SDS011;3557;48.880;8.328;2022-09-28T14:31:55;3.33;;;1.50;;
7031;SDS011;3557;48.880;8.328;2022-09-28T14:34:30;4.85;;;1.75;;
7031;SDS011;3557;48.880;8.328;2022-09-28T14:37:01;3.75;;;1.50;;
7031;SDS011;3557;48.880;8.328;2022-09-28T14:39:48;1.85;;;1.20;;
7031;SDS011;3557;48.880;8.328;2022-09-28T14:42:33;2.20;;;1.40;;
7031;SDS011;3557;48.880;8.328;2022-09-28T14:45:19;1.25;;;1.15;;
7031;SDS011;3557;48.880;8.328;2022-09-28T14:48:19;2.70;;;1.30;;
7031;SDS011;3557;48.880;8.328;2022-09-28T14:50:47;3.35;;;1.35;;
7031;SDS011;3557;48.880;8.328;2022-09-28T14:53:18;3.88;;;1.38;;
7031;SDS011;3557;48.880;8.328;2022-09-28T14:55:49;2.08;;;1.30;;
7031;SDS011;3557;48.880;8.328;2022-09-28T14:58:21;3.83;;;1.38;;
7031;SDS011;3557;48.880;8.328;2022-09-28T15:00:55;2.40;;;1.30;;
7031;SDS011;3557;48.880;8.328;2022-09-28T15:03:29;1.83;;;1.15;;
7031;SDS011;3557;48.880;8.328;2022-09-28T15:05:58;2.28;;;1.20;;
7031;SDS011;3557;48.880;8.328;2022-09-28T15:08:36;3.95;;;1.50;;
7031;SDS011;3557;48.880;8.328;2022-09-28T15:11:04;2.40;;;1.30;;
7031;SDS011;3557;48.880;8.328;2022-09-28T15:13:36;2.15;;;1.20;;
7031;SDS011;3557;48.880;8.328;2022-09-28T15:16:05;3.17;;;1.48;;
7031;SDS011;3557;48.880;8.328;2022-09-28T15:18:53;2.88;;;2.08;;
7031;SDS011;3557;48.880;8.328;2022-09-28T15:21:42;2.53;;;1.40;;
7031;SDS011;3557;48.880;8.328;2022-09-28T15:27:00;3.75;;;1.40;;
7031;SDS011;3557;48.880;8.328;2022-09-28T15:29:29;2.83;;;1.50;;
7031;SDS011;3557;48.880;8.328;2022-09-28T15:31:57;4.05;;;1.52;;
7031;SDS011;3557;48.880;8.328;2022-09-28T15:34:27;1.52;;;1.30;;
7031;SDS011;3557;48.880;8.328;2022-09-28T15:37:14;6.50;;;1.27;;
7031;SDS011;3557;48.880;8.328;2022-09-28T15:39:46;1.77;;;1.20;;
7031;SDS011;3557;48.880;8.328;2022-09-28T15:42:14;2.88;;;1.63;;
7031;SDS011;3557;48.880;8.328;2022-09-28T15:44:43;4.22;;;1.23;;
7031;SDS011;3557;48.880;8.328;2022-09-28T15:47:30;2.25;;;1.30;;
7031;SDS011;3557;48.880;8.328;2022-09-28T15:49:59;4.43;;;1.33;;
7031;SDS011;3557;48.880;8.328;2022-09-28T15:52:31;2.10;;;1.20;;
7031;SDS011;3557;48.880;8.328;2022-09-28T15:55:02;3.75;;;1.50;;
7031;SDS011;3557;48.880;8.328;2022-09-28T15:57:43;1.83;;;1.23;;
7031;SDS011;3557;48.880;8.328;2022-09-28T16:00:21;1.77;;;1.15;;
7031;SDS011;3557;48.880;8.328;2022-09-28T16:02:58;2.33;;;1.30;;
7031;SDS011;3557;48.880;8.328;2022-09-28T16:05:32;1.88;;;1.42;;
7031;SDS011;3557;48.880;8.328;2022-09-28T16:08:12;2.35;;;1.33;;
7031;SDS011;3557;48.880;8.328;2022-09-28T16:13:36;3.85;;;1.45;;
7031;SDS011;3557;48.880;8.328;2022-09-28T16:16:22;3.17;;;1.45;;
7031;SDS011;3557;48.880;8.328;2022-09-28T16:18:54;2.50;;;1.38;;
7031;SDS011;3557;48.880;8.328;2022-09-28T16:21:33;2.38;;;1.50;;
7031;SDS011;3557;48.880;8.328;2022-09-28T16:24:20;4.75;;;1.70;;
7031;SDS011;3557;48.880;8.328;2022-09-28T16:26:54;4.47;;;1.70;;
7031;SDS011;3557;48.880;8.328;2022-09-28T16:29:24;4.15;;;2.50;;
7031;SDS011;3557;48.880;8.328;2022-09-28T16:31:55;4.13;;;2.22;;
7031;SDS011;3557;48.880;8.328;2022-09-28T16:34:23;4.15;;;2.47;;
7031;SDS011;3557;48.880;8.328;2022-09-28T16:36:52;5.47;;;2.28;;
7031;SDS011;3557;48.880;8.328;2022-09-28T16:39:19;7.05;;;2.28;;
7031;SDS011;3557;48.880;8.328;2022-09-28T16:41:47;3.97;;;2.20;;